Time;durP1;ratioP1;P1;durP2;ratioP2;P2;SDS_P1;SDS_P2;PMS_P1;PMS_P2;Temp;Humidity;BMP_temperature;BMP_pressure;BME280_temperature;BME280_humidity;BME280_pressure;Samples;Min_cycle;Max_cycle;Signal;HPM_P1;HPM_P2
2022/07/20 00:02:11;;;;;;;12.93;3.45;;;25.50;63.10;;;;;;4952681;28;20431;-46
2022/07/20 00:04:37;;;;;;;7.22;3.30;;;25.50;62.80;;;;;;4952756;28;20369;-48
2022/07/20 00:07:02;;;;;;;5.85;3.75;;;25.50;64.10;;;;;;4952187;28;20089;-45
2022/07/20 00:12:12;;;;;;;5.45;2.90;;;25.40;63.10;;;;;;4952996;29;20054;-45
2022/07/20 00:14:37;;;;;;;5.70;2.83;;;25.40;62.30;;;;;;4952725;28;20523;-49
2022/07/20 00:17:03;;;;;;;6.28;2.85;;;25.40;62.10;;;;;;4951873;28;20027;-42
2022/07/20 00:19:29;;;;;;;5.90;3.40;;;25.40;62.10;;;;;;4952500;28;20042;-44
2022/07/20 00:21:54;;;;;;;9.32;3.28;;;25.50;62.10;;;;;;4952511;28;20070;-46
2022/07/20 00:24:20;;;;;;;5.28;2.88;;;25.50;61.60;;;;;;4950744;28;20031;-47
2022/07/20 00:26:45;;;;;;;7.65;3.22;;;25.40;61.40;;;;;;4952148;28;20568;-44
2022/07/20 00:29:11;;;;;;;4.57;2.97;;;25.40;61.30;;;;;;4951319;28;20395;-46
2022/07/20 00:31:36;;;;;;;9.48;3.13;;;25.40;61.20;;;;;;4952357;28;20035;-46
2022/07/20 00:34:03;;;;;;;5.30;2.78;;;25.40;61.40;;;;;;4952263;28;20027;-43
2022/07/20 00:36:28;;;;;;;12.82;3.35;;;25.40;61.40;;;;;;4952324;28;20027;-48
2022/07/20 00:38:54;;;;;;;4.38;3.22;;;25.30;61.70;;;;;;4951662;28;20023;-44
2022/07/20 00:41:19;;;;;;;4.32;2.85;;;25.30;62.10;;;;;;4952289;28;20036;-44
2022/07/20 00:43:55;;;;;;;2.85;2.55;;;25.20;62.40;;;;;;4952195;28;20050;-49
2022/07/20 00:46:21;;;;;;;8.00;3.97;;;25.10;62.60;;;;;;4952187;28;20047;-44
2022/07/20 00:48:46;;;;;;;12.00;3.25;;;25.00;63.40;;;;;;4951383;28;20467;-47
2022/07/20 00:51:12;;;;;;;10.23;3.13;;;25.00;63.00;;;;;;4952147;28;20023;-46
2022/07/20 00:53:39;;;;;;;6.93;3.10;;;24.90;63.50;;;;;;4952049;28;20046;-44
2022/07/20 00:56:06;;;;;;;7.07;3.20;;;24.90;63.50;;;;;;4952045;28;20041;-49
2022/07/20 00:58:31;;;;;;;6.13;2.65;;;24.80;64.40;;;;;;4951156;28;20035;-48
2022/07/20 01:00:57;;;;;;;7.13;2.65;;;24.70;65.50;;;;;;4951983;28;20662;-46
2022/07/20 01:03:22;;;;;;;6.57;3.40;;;24.60;64.50;;;;;;4951813;28;20061;-48
2022/07/20 01:05:48;;;;;;;5.28;3.13;;;24.50;64.00;;;;;;4952084;28;20035;-44
2022/07/20 01:08:13;;;;;;;12.20;3.08;;;24.50;63.70;;;;;;4951553;28;20534;-47
2022/07/20 01:10:39;;;;;;;3.22;3.00;;;24.60;63.20;;;;;;4951559;28;20034;-44
2022/07/20 01:13:04;;;;;;;10.57;3.40;;;24.60;63.40;;;;;;4951736;28;20027;-48
2022/07/20 01:15:30;;;;;;;8.32;3.42;;;24.60;63.20;;;;;;4951929;28;20031;-45
2022/07/20 01:17:55;;;;;;;4.57;3.67;;;24.50;63.30;;;;;;4951175;28;20039;-45
2022/07/20 01:20:24;;;;;;;8.85;3.30;;;24.60;64.00;;;;;;4951712;28;20516;-45
2022/07/20 01:22:50;;;;;;;4.20;2.90;;;24.60;63.30;;;;;;4951461;28;20067;-48
2022/07/20 01:25:16;;;;;;;5.03;3.28;;;24.50;63.90;;;;;;4950074;28;20521;-45
2022/07/20 01:27:41;;;;;;;12.75;3.47;;;24.40;63.50;;;;;;4950981;28;20035;-47
2022/07/20 01:30:07;;;;;;;9.23;3.22;;;24.40;63.70;;;;;;4951678;28;20024;-47
2022/07/20 01:32:33;;;;;;;7.28;3.13;;;24.40;63.80;;;;;;4951405;28;20023;-46
2022/07/20 01:34:59;;;;;;;3.88;3.13;;;24.30;64.20;;;;;;4951565;28;20031;-49
2022/07/20 01:37:25;;;;;;;9.00;3.35;;;24.20;63.80;;;;;;4950695;28;20042;-47
2022/07/20 01:39:51;;;;;;;10.32;3.75;;;24.20;64.30;;;;;;4951394;28;20023;-45
2022/07/20 01:42:17;;;;;;;5.18;3.40;;;24.20;64.40;;;;;;4951357;28;20114;-43
2022/07/20 01:44:42;;;;;;;8.45;3.60;;;24.20;64.00;;;;;;4951690;28;20027;-45
2022/07/20 01:47:08;;;;;;;13.82;3.22;;;24.10;64.40;;;;;;4950638;28;20489;-48
2022/07/20 01:49:33;;;;;;;3.97;3.30;;;24.10;64.20;;;;;;4951286;28;20042;-48
2022/07/20 01:52:00;;;;;;;7.20;4.30;;;24.10;64.40;;;;;;4949767;28;20085;-50
2022/07/20 01:54:26;;;;;;;8.63;3.58;;;24.10;64.50;;;;;;4951003;28;20027;-44
2022/07/20 01:56:52;;;;;;;8.23;3.72;;;24.00;64.50;;;;;;4950448;28;20034;-52
2022/07/20 01:59:17;;;;;;;9.48;4.28;;;24.00;64.80;;;;;;4951095;28;20027;-47
2022/07/20 02:01:43;;;;;;;4.95;3.80;;;24.00;65.00;;;;;;4950955;28;20118;-49
2022/07/20 02:04:08;;;;;;;9.85;4.20;;;23.90;65.30;;;;;;4950949;28;20019;-46
2022/07/20 02:06:34;;;;;;;7.55;3.65;;;23.80;65.40;;;;;;4950859;28;20110;-46
2022/07/20 02:08:59;;;;;;;7.82;3.72;;;23.80;65.70;;;;;;4950229;28;20023;-43
2022/07/20 02:11:25;;;;;;;7.32;3.58;;;23.70;65.80;;;;;;4950962;28;20118;-47
2022/07/20 02:13:50;;;;;;;4.38;3.20;;;23.60;65.80;;;;;;4951037;28;20027;-46
2022/07/20 02:16:16;;;;;;;6.00;3.95;;;23.70;65.90;;;;;;4950919;28;20027;-45
2022/07/20 02:18:50;;;;;;;10.48;4.45;;;23.60;66.30;;;;;;4950183;28;20403;-46
2022/07/20 02:21:16;;;;;;;10.50;3.88;;;23.50;66.40;;;;;;4950561;28;20121;-51
2022/07/20 02:23:43;;;;;;;7.97;3.85;;;23.50;66.70;;;;;;4949444;28;20102;-44
2022/07/20 02:26:08;;;;;;;5.63;3.90;;;23.40;66.60;;;;;;4950749;28;20038;-46
2022/07/20 02:28:34;;;;;;;8.70;4.18;;;23.40;66.50;;;;;;4950080;28;20028;-46
2022/07/20 02:31:00;;;;;;;11.50;3.67;;;23.40;66.90;;;;;;4950620;28;20027;-47
2022/07/20 02:33:25;;;;;;;7.15;4.15;;;23.30;66.90;;;;;;4950654;28;20222;-44
2022/07/20 02:35:51;;;;;;;5.07;3.65;;;23.30;66.90;;;;;;4950991;28;20089;-45
2022/07/20 02:38:16;;;;;;;7.38;5.03;;;23.30;67.00;;;;;;4950114;28;20023;-47
2022/07/20 02:40:42;;;;;;;9.95;4.32;;;23.20;67.00;;;;;;4950571;28;20031;-48
2022/07/20 02:43:07;;;;;;;10.48;4.20;;;23.20;67.10;;;;;;4950496;28;20071;-49
2022/07/20 02:45:33;;;;;;;10.07;4.13;;;23.20;67.10;;;;;;4950506;28;20472;-46
2022/07/20 02:48:02;;;;;;;7.38;3.92;;;23.20;67.10;;;;;;4949650;28;20034;-46
2022/07/20 02:50:33;;;;;;;5.45;3.95;;;23.20;67.10;;;;;;4950362;28;20027;-43
2022/07/20 02:53:00;;;;;;;10.90;4.25;;;23.10;67.00;;;;;;4952457;28;20253;-44
2022/07/20 02:55:26;;;;;;;6.60;3.35;;;23.20;67.10;;;;;;4953844;28;20066;-46
2022/07/20 02:57:52;;;;;;;6.60;3.38;;;23.20;67.20;;;;;;4951919;28;20039;-46
2022/07/20 03:00:18;;;;;;;11.60;3.97;;;23.30;67.30;;;;;;4953553;28;20156;-44
2022/07/20 03:02:43;;;;;;;5.53;4.07;;;23.30;67.30;;;;;;4953472;28;20065;-49
2022/07/20 03:05:09;;;;;;;8.27;4.10;;;23.20;67.30;;;;;;4954012;28;20188;-45
2022/07/20 03:07:34;;;;;;;5.00;3.88;;;23.20;67.40;;;;;;4953218;28;20027;-45
2022/07/20 03:10:00;;;;;;;7.13;4.65;;;23.10;67.60;;;;;;4953694;28;20032;-47
2022/07/20 03:12:25;;;;;;;6.72;4.50;;;23.10;67.80;;;;;;4953430;28;20058;-44
2022/07/20 03:14:51;;;;;;;8.13;3.78;;;23.10;67.80;;;;;;4953486;28;20371;-44
2022/07/20 03:17:17;;;;;;;5.13;3.50;;;23.00;68.20;;;;;;4952847;28;20030;-44
2022/07/20 03:19:43;;;;;;;5.00;3.80;;;23.00;68.10;;;;;;4953148;28;20039;-45
2022/07/20 03:22:09;;;;;;;5.38;4.38;;;23.00;68.10;;;;;;4953225;28;20080;-47
2022/07/20 03:24:34;;;;;;;6.80;3.95;;;23.00;68.30;;;;;;4951770;28;20023;-49
2022/07/20 03:27:00;;;;;;;6.32;4.07;;;23.00;68.20;;;;;;4952566;28;20118;-44
2022/07/20 03:29:25;;;;;;;5.70;3.50;;;22.90;68.30;;;;;;4953157;28;20027;-44
2022/07/20 03:31:51;;;;;;;6.45;4.00;;;22.90;68.40;;;;;;4953370;28;20032;-49
2022/07/20 03:34:16;;;;;;;6.65;3.97;;;22.80;68.70;;;;;;4953184;28;20399;-43
2022/07/20 03:36:42;;;;;;;9.20;3.97;;;22.70;69.00;;;;;;4953017;28;20037;-44
2022/07/20 03:39:07;;;;;;;8.27;4.13;;;22.60;69.30;;;;;;4952562;28;20035;-45
2022/07/20 03:41:33;;;;;;;8.93;3.97;;;22.50;69.40;;;;;;4953094;28;20102;-47
2022/07/20 03:43:58;;;;;;;9.73;3.63;;;22.50;69.50;;;;;;4952820;28;20023;-46
2022/07/20 03:46:24;;;;;;;6.97;4.40;;;22.50;69.60;;;;;;4953266;28;20434;-43
2022/07/20 03:48:49;;;;;;;9.38;5.22;;;22.50;69.50;;;;;;4952460;28;20055;-49
2022/07/20 03:51:15;;;;;;;8.20;4.43;;;22.50;69.60;;;;;;4953038;28;20023;-45
2022/07/20 03:53:40;;;;;;;11.25;4.32;;;22.50;69.60;;;;;;4952914;28;20023;-46
2022/07/20 03:56:06;;;;;;;7.68;4.13;;;22.50;69.60;;;;;;4952869;28;20490;-45
2022/07/20 03:58:31;;;;;;;4.20;3.67;;;22.50;69.80;;;;;;4952150;28;20111;-44
2022/07/20 04:00:57;;;;;;;8.80;3.65;;;22.50;69.80;;;;;;4952921;28;20031;-46
2022/07/20 04:03:22;;;;;;;15.23;4.03;;;22.50;70.00;;;;;;4952548;28;20417;-48
2022/07/20 04:05:48;;;;;;;7.68;3.83;;;22.50;70.20;;;;;;4952475;28;20031;-43
2022/07/20 04:08:13;;;;;;;7.28;4.05;;;22.50;69.90;;;;;;4951967;28;20399;-44
2022/07/20 04:10:39;;;;;;;9.75;3.83;;;22.60;70.00;;;;;;4952503;28;20390;-44
2022/07/20 04:13:05;;;;;;;6.18;3.88;;;22.60;69.70;;;;;;4952403;28;20399;-45
2022/07/20 04:15:31;;;;;;;5.70;4.00;;;22.70;68.90;;;;;;4952472;28;20030;-45
2022/07/20 04:17:57;;;;;;;6.68;3.88;;;22.80;69.10;;;;;;4951734;28;20028;-44
2022/07/20 04:20:23;;;;;;;6.38;3.78;;;22.90;69.00;;;;;;4952366;28;20108;-44
2022/07/20 04:22:48;;;;;;;7.05;3.88;;;22.90;68.50;;;;;;4952751;28;20055;-44
2022/07/20 04:25:14;;;;;;;7.15;4.07;;;23.00;68.00;;;;;;4950808;28;20030;-45
2022/07/20 04:27:40;;;;;;;10.40;4.30;;;23.00;68.70;;;;;;4951564;28;20059;-43
2022/07/20 04:30:06;;;;;;;4.05;3.60;;;23.10;68.30;;;;;;4952384;28;20028;-47
2022/07/20 04:32:31;;;;;;;14.05;5.88;;;23.10;68.30;;;;;;4952265;28;20086;-45
2022/07/20 04:34:57;;;;;;;8.82;3.78;;;23.20;68.50;;;;;;4952433;28;20052;-44
2022/07/20 04:37:22;;;;;;;6.25;3.97;;;23.20;68.60;;;;;;4951514;28;20034;-44
2022/07/20 04:39:48;;;;;;;8.77;3.97;;;23.20;68.40;;;;;;4952690;28;20059;-44
2022/07/20 04:42:14;;;;;;;13.93;4.53;;;23.20;68.40;;;;;;4952096;28;20027;-48
2022/07/20 04:44:39;;;;;;;5.32;3.95;;;23.30;68.50;;;;;;4952249;28;20031;-44
2022/07/20 04:47:05;;;;;;;10.63;4.00;;;23.30;69.20;;;;;;4951674;28;20117;-45
2022/07/20 04:49:30;;;;;;;5.53;3.72;;;23.30;68.50;;;;;;4952297;28;20080;-49
2022/07/20 04:51:56;;;;;;;11.27;4.38;;;23.40;68.60;;;;;;4951932;28;20038;-48
2022/07/20 04:54:22;;;;;;;8.65;3.65;;;23.60;68.60;;;;;;4951854;28;20031;-46
2022/07/20 04:56:48;;;;;;;5.38;3.60;;;23.80;67.90;;;;;;4951540;28;20033;-46
2022/07/20 04:59:14;;;;;;;4.25;3.67;;;24.20;67.30;;;;;;4951603;28;20106;-47
2022/07/20 05:01:40;;;;;;;27.40;4.18;;;24.70;65.40;;;;;;4951533;28;20031;-43
2022/07/20 05:04:06;;;;;;;10.55;3.22;;;25.30;64.20;;;;;;4951686;28;20401;-47
2022/07/20 05:06:31;;;;;;;7.25;3.88;;;26.00;63.30;;;;;;4951669;28;20053;-46
2022/07/20 05:08:57;;;;;;;10.35;4.15;;;26.80;62.20;;;;;;4951003;28;20043;-45
2022/07/20 05:11:22;;;;;;;7.15;3.72;;;27.50;60.80;;;;;;4951595;28;20102;-46
2022/07/20 05:13:48;;;;;;;9.63;3.53;;;28.40;59.40;;;;;;4951684;28;20027;-49
2022/07/20 05:16:14;;;;;;;7.90;3.20;;;29.30;58.10;;;;;;4951538;28;20023;-47
2022/07/20 05:18:40;;;;;;;6.15;3.33;;;30.10;56.50;;;;;;4951061;28;20471;-47
2022/07/20 05:21:05;;;;;;;6.13;3.28;;;30.80;56.00;;;;;;4994652;23;20044;-47
2022/07/20 05:23:31;;;;;;;8.55;3.53;;;31.30;55.50;;;;;;5071003;28;20363;-46
2022/07/20 05:25:56;;;;;;;9.18;3.78;;;31.80;54.60;;;;;;5072177;28;20040;-47
2022/07/20 05:28:22;;;;;;;9.27;3.63;;;32.30;54.00;;;;;;5071968;28;20107;-46
2022/07/20 05:30:48;;;;;;;4.32;2.92;;;32.60;53.50;;;;;;5072421;28;20021;-45
2022/07/20 05:33:14;;;;;;;15.63;3.85;;;32.90;53.20;;;;;;5072368;28;20507;-49
2022/07/20 05:35:40;;;;;;;6.90;2.85;;;33.20;53.20;;;;;;5072391;28;20032;-46
2022/07/20 05:38:05;;;;;;;3.10;2.75;;;33.60;52.30;;;;;;5053644;28;20024;-45
2022/07/20 05:40:31;;;;;;;3.95;3.03;;;33.70;51.70;;;;;;5072004;28;20028;-47
2022/07/20 05:42:56;;;;;;;9.60;3.90;;;33.40;52.00;;;;;;5071897;28;20459;-46
2022/07/20 05:45:22;;;;;;;10.63;3.35;;;33.10;52.00;;;;;;5072543;28;20103;-47
2022/07/20 05:47:47;;;;;;;12.32;2.95;;;32.90;52.30;;;;;;5053371;28;20016;-45
2022/07/20 05:50:13;;;;;;;10.75;3.72;;;32.80;52.80;;;;;;5054020;28;20559;-46
2022/07/20 05:52:38;;;;;;;9.25;3.30;;;33.20;52.90;;;;;;5071583;28;20036;-45
2022/07/20 05:55:04;;;;;;;8.63;2.97;;;33.70;52.30;;;;;;5071706;28;20105;-48
2022/07/20 05:57:30;;;;;;;7.55;3.40;;;34.20;51.40;;;;;;5071060;28;20095;-45
2022/07/20 05:59:55;;;;;;;8.00;3.10;;;34.70;51.30;;;;;;5071466;28;20032;-47
2022/07/20 06:02:21;;;;;;;9.90;3.28;;;35.50;51.20;;;;;;5071304;28;20114;-45
2022/07/20 06:04:46;;;;;;;12.35;3.30;;;36.10;49.80;;;;;;5071629;28;20082;-44
2022/07/20 06:07:12;;;;;;;7.25;2.85;;;36.20;49.40;;;;;;5052902;28;20043;-45
2022/07/20 06:09:37;;;;;;;8.65;2.72;;;36.40;49.60;;;;;;5071333;28;20029;-44
2022/07/20 06:12:03;;;;;;;11.05;3.55;;;37.00;48.70;;;;;;5071435;28;20020;-45
2022/07/20 06:14:29;;;;;;;9.02;3.08;;;36.90;48.70;;;;;;5053810;28;20028;-48
2022/07/20 06:16:54;;;;;;;12.55;3.25;;;36.90;48.50;;;;;;5070873;28;20036;-50
2022/07/20 06:19:20;;;;;;;7.18;2.63;;;36.60;49.00;;;;;;5071778;28;20440;-45
2022/07/20 06:21:45;;;;;;;8.68;3.50;;;36.30;49.20;;;;;;5071357;28;20040;-47
2022/07/20 06:24:11;;;;;;;8.43;3.60;;;36.20;49.40;;;;;;5069853;28;20074;-50
2022/07/20 06:26:36;;;;;;;10.38;3.75;;;35.90;50.10;;;;;;5052768;28;20023;-46
2022/07/20 06:29:02;;;;;;;5.30;2.80;;;36.20;49.50;;;;;;5070676;28;20429;-45
2022/07/20 06:31:28;;;;;;;11.25;3.70;;;36.20;49.60;;;;;;5071062;28;20020;-45
2022/07/20 06:33:54;;;;;;;11.65;3.20;;;36.00;50.00;;;;;;5071416;28;20387;-45
2022/07/20 06:36:19;;;;;;;8.35;3.40;;;35.70;49.70;;;;;;5071527;28;20024;-46
2022/07/20 06:38:45;;;;;;;13.88;3.20;;;36.10;50.00;;;;;;5071281;28;20024;-44
2022/07/20 06:41:11;;;;;;;14.52;3.20;;;36.30;49.40;;;;;;5071649;28;20021;-47
2022/07/20 06:43:36;;;;;;;18.85;2.75;;;36.30;49.50;;;;;;5070949;28;20036;-45
2022/07/20 06:46:02;;;;;;;19.40;3.90;;;36.70;49.50;;;;;;5071107;28;20476;-44
2022/07/20 06:48:27;;;;;;;8.32;2.95;;;37.50;48.50;;;;;;5070670;28;20025;-47
2022/07/20 06:50:53;;;;;;;13.00;3.17;;;37.50;48.60;;;;;;5071255;28;20016;-46
2022/07/20 06:53:18;;;;;;;7.55;2.97;;;37.70;48.60;;;;;;5071288;28;20071;-47
2022/07/20 06:55:45;;;;;;;8.45;2.53;;;38.00;48.80;;;;;;5070989;28;20421;-46
2022/07/20 06:58:10;;;;;;;11.73;2.80;;;38.40;48.30;;;;;;5070246;28;20066;-44
2022/07/20 07:00:36;;;;;;;12.25;3.03;;;38.00;46.90;;;;;;5070942;28;20028;-47
2022/07/20 07:03:01;;;;;;;8.98;2.70;;;36.70;48.30;;;;;;5068220;28;20484;-45
2022/07/20 07:05:27;;;;;;;8.05;2.38;;;37.10;48.80;;;;;;5068178;28;20373;-43
2022/07/20 07:07:52;;;;;;;14.23;2.78;;;37.00;47.70;;;;;;5050252;28;20037;-43
2022/07/20 07:10:18;;;;;;;11.43;2.70;;;37.40;47.60;;;;;;5059909;28;20024;-45
2022/07/20 07:12:43;;;;;;;12.02;2.50;;;38.10;47.70;;;;;;5068416;28;20385;-46
2022/07/20 07:15:09;;;;;;;23.90;3.55;;;38.80;47.60;;;;;;5071131;28;20032;-47
2022/07/20 07:17:35;;;;;;;5.55;2.30;;;39.50;46.80;;;;;;5070103;28;20059;-47
2022/07/20 07:20:00;;;;;;;9.55;3.03;;;39.20;46.70;;;;;;5064335;28;20056;-45
2022/07/20 07:22:27;;;;;;;17.73;3.13;;;40.00;46.20;;;;;;5070497;28;20085;-48
2022/07/20 07:24:53;;;;;;;13.25;2.50;;;40.30;45.80;;;;;;5067764;28;20036;-49
2022/07/20 07:27:18;;;;;;;15.02;3.47;;;40.30;46.00;;;;;;5057040;28;20404;-43
2022/07/20 07:29:44;;;;;;;11.00;2.67;;;40.50;45.60;;;;;;5070169;28;20039;-43
2022/07/20 07:32:09;;;;;;;15.35;2.92;;;40.50;45.00;;;;;;5068752;28;20120;-43
2022/07/20 07:34:35;;;;;;;8.55;2.58;;;40.80;45.10;;;;;;5070107;28;20032;-46
2022/07/20 07:37:01;;;;;;;12.70;3.15;;;40.80;44.80;;;;;;5069911;28;20024;-46
2022/07/20 07:39:26;;;;;;;16.13;2.90;;;41.20;45.60;;;;;;5069891;28;20488;-46
2022/07/20 07:41:52;;;;;;;5.70;2.60;;;41.70;45.60;;;;;;5073676;28;20043;-45
2022/07/20 07:44:17;;;;;;;4.75;2.53;;;42.40;44.60;;;;;;5074146;28;20119;-47
2022/07/20 07:46:43;;;;;;;7.35;2.33;;;42.90;44.20;;;;;;5073991;28;20023;-47
2022/07/20 07:49:08;;;;;;;6.40;2.53;;;43.50;43.70;;;;;;5073468;28;20025;-51
2022/07/20 07:51:34;;;;;;;20.85;2.63;;;43.40;42.60;;;;;;5074117;28;20105;-44
2022/07/20 07:53:59;;;;;;;7.40;2.55;;;43.60;43.10;;;;;;5073979;28;20028;-43
2022/07/20 07:56:25;;;;;;;5.75;2.22;;;43.90;43.20;;;;;;5074066;28;20032;-45
2022/07/20 07:58:50;;;;;;;7.30;2.45;;;44.20;42.70;;;;;;5072434;28;20031;-44
2022/07/20 08:01:16;;;;;;;8.10;2.50;;;44.20;41.80;;;;;;5074040;28;20021;-45
2022/07/20 08:03:41;;;;;;;9.35;2.35;;;44.30;42.50;;;;;;5073768;28;20040;-44
2022/07/20 08:06:07;;;;;;;11.00;2.50;;;44.10;42.00;;;;;;5073856;28;20036;-49
2022/07/20 08:08:33;;;;;;;10.57;2.60;;;44.00;42.30;;;;;;5073023;28;20025;-45
2022/07/20 08:10:59;;;;;;;7.32;2.50;;;44.20;42.70;;;;;;5072659;28;20024;-45
2022/07/20 08:13:26;;;;;;;11.80;2.60;;;44.10;42.40;;;;;;5073079;28;20040;-45
2022/07/20 08:15:51;;;;;;;14.15;3.25;;;43.80;42.60;;;;;;5069137;28;20046;-48
2022/07/20 08:18:17;;;;;;;12.00;2.67;;;44.00;42.70;;;;;;5067930;28;20108;-44
2022/07/20 08:20:43;;;;;;;10.95;2.50;;;44.10;42.70;;;;;;5055860;28;20021;-48
2022/07/20 08:23:08;;;;;;;10.15;2.60;;;43.90;42.90;;;;;;5055728;28;20073;-46
2022/07/20 08:25:34;;;;;;;8.93;2.55;;;44.10;42.80;;;;;;5067110;28;20024;-53
2022/07/20 08:28:18;;;;;;;8.73;2.72;;;44.20;42.40;;;;;;5072247;28;20550;-46
2022/07/20 08:30:45;;;;;;;10.43;3.70;;;43.90;42.40;;;;;;5053943;28;20505;-46
2022/07/20 08:33:11;;;;;;;5.45;2.47;;;43.40;42.60;;;;;;5059228;28;20024;-48
2022/07/20 08:35:37;;;;;;;12.07;2.70;;;42.60;43.40;;;;;;5073273;28;20395;-46
2022/07/20 08:38:05;;;;;;;7.00;2.50;;;42.00;43.80;;;;;;5072277;28;20025;-48
2022/07/20 08:40:32;;;;;;;9.10;2.83;;;41.60;43.80;;;;;;5072640;28;20021;-44
2022/07/20 08:42:58;;;;;;;8.98;3.00;;;41.40;44.10;;;;;;5059036;28;20025;-46
2022/07/20 08:45:24;;;;;;;15.07;3.45;;;40.60;44.20;;;;;;5053933;28;20029;-48
2022/07/20 08:47:51;;;;;;;6.53;2.90;;;40.00;45.80;;;;;;5072266;28;20017;-47
2022/07/20 08:50:25;;;;;;;9.02;2.97;;;39.50;46.40;;;;;;5072797;28;20029;-46
2022/07/20 08:52:52;;;;;;;8.02;2.92;;;39.10;46.10;;;;;;5072955;28;20116;-45
2022/07/20 08:55:18;;;;;;;4.35;3.03;;;38.80;46.10;;;;;;5072671;28;20392;-49
2022/07/20 08:57:43;;;;;;;9.23;2.80;;;38.50;47.30;;;;;;5072108;28;20028;-49
2022/07/20 09:00:09;;;;;;;13.98;3.15;;;38.40;47.20;;;;;;5072174;28;20147;-44
2022/07/20 09:02:48;;;;;;;11.07;2.80;;;38.30;47.30;;;;;;5072237;28;20028;-44
2022/07/20 09:05:14;;;;;;;11.65;2.92;;;37.90;48.30;;;;;;5072456;28;20029;-51
2022/07/20 09:07:41;;;;;;;5.35;2.78;;;37.60;48.70;;;;;;5067355;28;20041;-47
2022/07/20 09:10:13;;;;;;;5.68;3.00;;;37.30;48.60;;;;;;5072947;28;20078;-43
2022/07/20 09:12:50;;;;;;;14.10;3.17;;;36.90;48.60;;;;;;5064921;28;20480;-48
2022/07/20 09:15:49;;;;;;;12.38;2.70;;;36.70;49.30;;;;;;5052464;28;20020;-45
2022/07/20 09:18:18;;;;;;;4.32;2.70;;;36.50;49.80;;;;;;5045486;28;20041;-50
2022/07/20 09:20:50;;;;;;;8.85;3.22;;;36.50;49.60;;;;;;5034142;28;20024;-45
2022/07/20 09:23:18;;;;;;;41.55;34.25;;;36.40;49.00;;;;;;5052760;28;20384;-43
2022/07/20 09:25:59;;;;;;;9.10;3.58;;;36.30;49.10;;;;;;5067627;28;20020;-48
2022/07/20 09:28:35;;;;;;;7.13;3.10;;;36.30;49.40;;;;;;5071210;28;20055;-44
2022/07/20 09:31:02;;;;;;;4.55;2.85;;;36.50;49.70;;;;;;5071795;28;20021;-51
2022/07/20 09:33:30;;;;;;;3.15;2.75;;;36.70;49.00;;;;;;5071944;28;20032;-43
2022/07/20 09:35:57;;;;;;;7.82;2.83;;;36.70;48.20;;;;;;5070960;28;20024;-48
2022/07/20 09:38:32;;;;;;;4.25;2.83;;;36.40;48.30;;;;;;5060732;28;20432;-43
2022/07/20 09:40:58;;;;;;;8.35;3.55;;;36.30;49.20;;;;;;5068746;28;20040;-46
2022/07/20 09:43:29;;;;;;;5.93;2.75;;;36.10;48.00;;;;;;5068843;28;20033;-42
2022/07/20 09:46:10;;;;;;;5.18;3.53;;;36.00;48.60;;;;;;5055740;28;20020;-42
2022/07/20 09:48:47;;;;;;;3.60;3.05;;;35.90;49.50;;;;;;5056375;28;20032;-44
2022/07/20 09:51:24;;;;;;;9.43;2.83;;;36.00;49.20;;;;;;5071475;28;20030;-46
2022/07/20 09:54:11;;;;;;;4.45;3.17;;;35.80;49.20;;;;;;5071824;28;20071;-52
2022/07/20 09:56:42;;;;;;;10.93;3.42;;;35.70;49.20;;;;;;5051217;28;20047;-48
2022/07/20 09:59:10;;;;;;;10.40;3.60;;;35.70;49.50;;;;;;5051333;28;20052;-43
2022/07/20 10:01:42;;;;;;;10.43;4.20;;;35.50;48.90;;;;;;5062724;28;20089;-43
2022/07/20 10:04:10;;;;;;;13.55;3.25;;;35.20;50.20;;;;;;5071715;28;20104;-46
2022/07/20 10:06:39;;;;;;;8.73;3.50;;;35.00;50.60;;;;;;5071366;28;20025;-46
2022/07/20 10:09:06;;;;;;;6.38;3.30;;;34.90;50.00;;;;;;5070975;28;20020;-47
2022/07/20 10:11:32;;;;;;;5.45;3.67;;;34.80;50.60;;;;;;5071497;28;20025;-45
2022/07/20 10:14:01;;;;;;;4.75;3.65;;;34.60;50.90;;;;;;5071543;28;20035;-44
2022/07/20 10:16:50;;;;;;;4.25;3.70;;;34.40;50.80;;;;;;5071635;28;20440;-45
2022/07/20 10:19:17;;;;;;;4.40;2.92;;;34.40;51.50;;;;;;5071217;28;20480;-46
2022/07/20 10:21:53;;;;;;;10.43;3.83;;;34.30;50.90;;;;;;5072010;28;20056;-44
2022/07/20 10:24:25;;;;;;;6.63;3.53;;;34.40;51.70;;;;;;5072734;28;20035;-45
2022/07/20 10:27:12;;;;;;;9.85;3.58;;;34.40;51.20;;;;;;5072485;28;20016;-45
2022/07/20 10:29:39;;;;;;;9.05;3.85;;;34.40;51.50;;;;;;5060410;28;20089;-47
2022/07/20 10:32:16;;;;;;;11.73;6.25;;;34.40;51.40;;;;;;5072038;28;20455;-45
2022/07/20 10:34:47;;;;;;;13.20;4.85;;;34.30;51.30;;;;;;5071242;28;20025;-46
2022/07/20 10:37:25;;;;;;;12.15;4.07;;;34.20;51.10;;;;;;5066426;28;20366;-45
2022/07/20 10:40:14;;;;;;;7.03;3.72;;;34.20;51.60;;;;;;5051196;28;20025;-49
2022/07/20 10:42:46;;;;;;;7.53;4.00;;;34.10;52.30;;;;;;5050706;28;20028;-50
2022/07/20 10:45:19;;;;;;;9.27;3.60;;;34.10;51.40;;;;;;5050821;28;20052;-47
2022/07/20 10:47:55;;;;;;;7.50;3.55;;;34.20;51.10;;;;;;5050457;28;20021;-48
2022/07/20 10:50:33;;;;;;;7.53;4.07;;;34.10;51.30;;;;;;5060190;28;20102;-46
2022/07/20 10:53:24;;;;;;;6.93;3.50;;;34.10;51.40;;;;;;5069968;28;20399;-43
2022/07/20 10:55:54;;;;;;;5.65;4.10;;;34.10;50.70;;;;;;5070816;28;20028;-43
2022/07/20 10:58:36;;;;;;;4.72;3.28;;;34.10;50.40;;;;;;5070083;28;20024;-45
2022/07/20 11:01:05;;;;;;;7.15;3.60;;;34.10;51.10;;;;;;5071295;28;20029;-49
2022/07/20 11:03:39;;;;;;;6.78;3.95;;;34.00;51.60;;;;;;5070703;28;20028;-44
2022/07/20 11:06:12;;;;;;;7.88;3.28;;;34.00;52.20;;;;;;5069997;28;20051;-47
2022/07/20 11:08:40;;;;;;;5.05;3.72;;;34.10;51.90;;;;;;5070123;28;20438;-45
2022/07/20 11:11:07;;;;;;;7.95;3.67;;;34.10;51.00;;;;;;5071141;28;20029;-50
2022/07/20 11:13:33;;;;;;;10.20;3.83;;;34.10;50.90;;;;;;5072183;28;20395;-46
2022/07/20 11:16:01;;;;;;;8.10;3.63;;;34.20;51.60;;;;;;5074878;28;20024;-44
2022/07/20 11:18:29;;;;;;;8.23;4.00;;;34.20;51.00;;;;;;5074518;28;20025;-46
2022/07/20 11:20:56;;;;;;;12.63;4.05;;;34.30;49.90;;;;;;5074328;28;20492;-43
2022/07/20 11:23:25;;;;;;;10.27;4.05;;;34.20;49.80;;;;;;5074297;28;20421;-49
2022/07/20 11:25:55;;;;;;;6.95;3.45;;;34.20;50.20;;;;;;5074748;28;20078;-50
2022/07/20 11:28:25;;;;;;;11.63;3.70;;;34.20;51.10;;;;;;5074486;28;20100;-47
2022/07/20 11:30:52;;;;;;;5.18;3.40;;;34.20;50.70;;;;;;5074739;28;20025;-47
2022/07/20 11:33:25;;;;;;;11.20;3.67;;;34.20;49.90;;;;;;5074289;28;20036;-46
2022/07/20 11:35:51;;;;;;;7.13;3.67;;;34.20;50.40;;;;;;5074212;28;20025;-48
2022/07/20 11:38:17;;;;;;;11.55;3.70;;;34.20;50.50;;;;;;5073260;28;20032;-46
2022/07/20 11:40:56;;;;;;;11.77;3.58;;;34.30;50.40;;;;;;5074200;28;20396;-47
2022/07/20 11:43:21;;;;;;;6.55;3.53;;;34.30;50.40;;;;;;5073858;28;20024;-43
2022/07/20 11:45:47;;;;;;;6.45;3.60;;;34.40;50.20;;;;;;5074419;28;20036;-46
2022/07/20 11:48:17;;;;;;;6.25;3.60;;;34.40;50.00;;;;;;5073443;28;20111;-42
2022/07/20 11:50:43;;;;;;;10.45;3.03;;;34.50;49.70;;;;;;5074123;28;20025;-47
2022/07/20 11:53:41;;;;;;;5.82;3.47;;;34.50;49.70;;;;;;5074020;28;20435;-44
2022/07/20 11:56:15;;;;;;;5.22;3.30;;;34.50;48.40;;;;;;5029457;28;20036;-44
2022/07/20 11:58:43;;;;;;;5.32;4.13;;;34.50;48.30;;;;;;5073060;28;20032;-46
2022/07/20 12:01:11;;;;;;;13.07;3.60;;;34.50;49.20;;;;;;5074297;28;20068;-47
2022/07/20 12:03:48;;;;;;;5.32;3.28;;;34.40;49.30;;;;;;5073760;28;20066;-47
2022/07/20 12:06:15;;;;;;;7.53;3.30;;;34.40;48.90;;;;;;5073941;28;20031;-47
2022/07/20 12:08:41;;;;;;;10.07;3.50;;;34.50;48.50;;;;;;5073257;28;20025;-44
2022/07/20 12:11:08;;;;;;;7.60;3.38;;;34.50;48.80;;;;;;5074372;28;20109;-48
2022/07/20 12:13:49;;;;;;;6.22;3.28;;;34.50;49.50;;;;;;5061162;22;20106;-43
2022/07/20 12:16:16;;;;;;;9.77;5.13;;;34.50;49.00;;;;;;4991298;28;20034;-49
2022/07/20 12:18:45;;;;;;;23.08;18.55;;;34.60;49.50;;;;;;4990462;28;20103;-45
2022/07/20 12:21:16;;;;;;;22.42;18.48;;;34.70;50.10;;;;;;4991252;28;20405;-45
2022/07/20 12:23:48;;;;;;;6.03;3.92;;;34.80;50.30;;;;;;4991091;28;20022;-45
2022/07/20 12:26:42;;;;;;;10.93;4.45;;;34.90;50.70;;;;;;4990257;28;20397;-45
2022/07/20 12:29:26;;;;;;;7.03;3.38;;;34.90;50.10;;;;;;4990166;28;20034;-44
2022/07/20 12:32:05;;;;;;;12.57;3.57;;;34.90;49.50;;;;;;4991244;28;20101;-48
2022/07/20 12:34:48;;;;;;;6.55;3.95;;;34.90;49.20;;;;;;4991271;28;20386;-46
2022/07/20 12:37:13;;;;;;;10.40;3.70;;;34.90;50.20;;;;;;4990395;28;20030;-45
2022/07/20 12:39:42;;;;;;;8.07;3.50;;;34.90;49.50;;;;;;4990992;28;20075;-44
2022/07/20 12:42:22;;;;;;;12.75;3.88;;;34.90;49.10;;;;;;4990778;28;20033;-51
2022/07/20 12:44:56;;;;;;;10.13;4.10;;;34.90;49.50;;;;;;4990845;28;20025;-45
2022/07/20 12:47:21;;;;;;;9.30;3.58;;;35.00;49.30;;;;;;4990192;28;20110;-45
2022/07/20 12:49:47;;;;;;;6.38;3.78;;;34.90;48.70;;;;;;4991048;28;20105;-46